Time;durP1;ratioP1;P1;durP2;ratioP2;P2;SDS_P1;SDS_P2;PMS_P1;PMS_P2;Temp;Humidity;BMP_temperature;BMP_pressure;BME280_temperature;BME280_humidity;BME280_pressure;Samples;Min_cycle;Max_cycle;Signal;HPM_P1;HPM_P2
2023/12/07 00:00:38;;;;;;;156.83;46.23;;;;;;;;;;5020944;28;20025;-82
2023/12/07 00:03:06;;;;;;;189.53;49.20;;;;;;;;;;5019127;28;20033;-80
2023/12/07 00:05:33;;;;;;;153.00;44.90;;;;;;;;;;5019940;28;20121;-83
2023/12/07 00:07:59;;;;;;;141.97;43.70;;;;;;;;;;5038186;28;20339;-79
2023/12/07 00:10:25;;;;;;;139.03;44.17;;;;;;;;;;5036571;28;20652;-79
2023/12/07 00:12:51;;;;;;;130.17;42.90;;;;;;;;;;5020587;28;20032;-80
2023/12/07 00:15:17;;;;;;;160.23;48.63;;;;;;;;;;5033925;28;20026;-80
2023/12/07 00:17:43;;;;;;;155.63;47.50;;;;;;;;;;5031445;28;20069;-80
2023/12/07 00:20:09;;;;;;;178.73;48.13;;;;;;;;;;5018609;28;20048;-79
2023/12/07 00:22:35;;;;;;;134.80;43.30;;;;;;;;;;5018633;28;21626;-78
2023/12/07 00:25:01;;;;;;;157.33;45.83;;;;;;;;;;5019402;28;20292;-78
2023/12/07 00:27:27;;;;;;;148.37;45.00;;;;;;;;;;5031083;28;20812;-80
2023/12/07 00:29:53;;;;;;;130.30;42.77;;;;;;;;;;5028715;28;20026;-76
2023/12/07 00:32:19;;;;;;;145.00;44.37;;;;;;;;;;5015526;28;20029;-78
2023/12/07 00:34:45;;;;;;;127.37;42.80;;;;;;;;;;5026003;28;20037;-78
2023/12/07 00:37:11;;;;;;;146.37;46.00;;;;;;;;;;5013582;28;20288;-79
2023/12/07 00:39:41;;;;;;;138.93;44.63;;;;;;;;;;5029657;28;20423;-79
2023/12/07 00:42:07;;;;;;;124.93;40.57;;;;;;;;;;5016827;28;20267;-78
2023/12/07 00:44:32;;;;;;;136.03;42.90;;;;;;;;;;5028022;28;20632;-79
2023/12/07 00:46:58;;;;;;;129.43;41.40;;;;;;;;;;5015838;28;20029;-79
2023/12/07 00:49:24;;;;;;;143.13;44.20;;;;;;;;;;5016695;28;20442;-80
2023/12/07 00:51:50;;;;;;;115.50;41.67;;;;;;;;;;5016275;28;20056;-81
2023/12/07 00:54:16;;;;;;;127.30;38.60;;;;;;;;;;5028050;28;20029;-82
2023/12/07 00:56:42;;;;;;;123.40;41.33;;;;;;;;;;5015123;28;20454;-81
2023/12/07 00:59:08;;;;;;;105.07;41.07;;;;;;;;;;5015338;28;20029;-80
2023/12/07 01:01:38;;;;;;;133.63;42.67;;;;;;;;;;5015908;28;20160;-80
2023/12/07 01:04:05;;;;;;;157.10;45.43;;;;;;;;;;5016389;28;20489;-78
2023/12/07 01:06:31;;;;;;;133.57;46.37;;;;;;;;;;5016368;28;20284;-80
2023/12/07 01:08:58;;;;;;;126.80;44.47;;;;;;;;;;5016045;28;20280;-81
2023/12/07 01:11:26;;;;;;;119.63;43.63;;;;;;;;;;5015109;28;20264;-80
2023/12/07 01:13:52;;;;;;;148.03;43.77;;;;;;;;;;5015403;28;20283;-81
2023/12/07 01:16:20;;;;;;;129.53;43.37;;;;;;;;;;5015582;28;20346;-79
2023/12/07 01:18:46;;;;;;;120.13;42.33;;;;;;;;;;5016411;28;20029;-79
2023/12/07 01:21:14;;;;;;;125.83;40.80;;;;;;;;;;5032652;28;20421;-79
2023/12/07 01:23:40;;;;;;;172.63;45.93;;;;;;;;;;5014557;28;20295;-79
2023/12/07 01:26:06;;;;;;;141.23;45.53;;;;;;;;;;5032286;28;20276;-81
2023/12/07 01:28:33;;;;;;;146.57;44.93;;;;;;;;;;5016042;28;20090;-79
2023/12/07 01:31:00;;;;;;;133.57;43.60;;;;;;;;;;5013718;28;20269;-81
2023/12/07 01:33:26;;;;;;;126.17;42.77;;;;;;;;;;5016314;28;20308;-79
2023/12/07 01:35:52;;;;;;;118.07;43.50;;;;;;;;;;5033035;28;20627;-78
2023/12/07 01:38:19;;;;;;;133.93;43.30;;;;;;;;;;5032612;28;20038;-79
2023/12/07 01:40:45;;;;;;;134.07;42.00;;;;;;;;;;5015615;28;20437;-79
2023/12/07 01:43:11;;;;;;;127.30;43.97;;;;;;;;;;5014795;28;20303;-80
2023/12/07 01:45:37;;;;;;;131.23;43.50;;;;;;;;;;5014995;28;20268;-80
2023/12/07 01:48:03;;;;;;;113.83;41.90;;;;;;;;;;5014904;28;20511;-81
2023/12/07 01:50:29;;;;;;;118.03;40.90;;;;;;;;;;5015719;28;20083;-81
2023/12/07 01:52:58;;;;;;;113.17;40.27;;;;;;;;;;5016275;28;20282;-79
2023/12/07 01:55:26;;;;;;;117.03;42.70;;;;;;;;;;5015809;28;20269;-81
2023/12/07 01:57:52;;;;;;;125.17;41.77;;;;;;;;;;5032030;28;20256;-82
2023/12/07 02:00:18;;;;;;;119.27;42.90;;;;;;;;;;5016163;28;20776;-81
2023/12/07 02:02:45;;;;;;;125.93;41.50;;;;;;;;;;5015818;28;20295;-81
2023/12/07 02:05:13;;;;;;;131.17;43.00;;;;;;;;;;5015700;28;20358;-85
2023/12/07 02:07:39;;;;;;;118.23;39.07;;;;;;;;;;5016187;28;20272;-81
2023/12/07 02:10:06;;;;;;;109.10;39.93;;;;;;;;;;5015385;28;20283;-80
2023/12/07 02:12:32;;;;;;;121.83;41.63;;;;;;;;;;5013282;28;20399;-80
2023/12/07 02:14:58;;;;;;;121.20;39.33;;;;;;;;;;5014203;28;20635;-82
2023/12/07 02:17:33;;;;;;;138.80;41.87;;;;;;;;;;5014590;28;20272;-81
2023/12/07 02:20:14;;;;;;;126.40;42.20;;;;;;;;;;5017836;28;20398;-80
2023/12/07 02:22:47;;;;;;;109.97;38.47;;;;;;;;;;5031340;28;20346;-80
2023/12/07 02:25:15;;;;;;;111.13;39.93;;;;;;;;;;5016212;28;20295;-82
2023/12/07 02:27:41;;;;;;;110.30;37.60;;;;;;;;;;5016128;28;20268;-82
2023/12/07 02:30:08;;;;;;;115.27;40.00;;;;;;;;;;5016523;28;20296;-79
2023/12/07 02:32:35;;;;;;;118.03;40.07;;;;;;;;;;5015890;28;20308;-81
2023/12/07 02:35:01;;;;;;;112.73;38.30;;;;;;;;;;5017417;28;20280;-85
2023/12/07 02:37:28;;;;;;;115.13;41.00;;;;;;;;;;5016191;28;20304;-81
2023/12/07 02:39:56;;;;;;;110.83;39.03;;;;;;;;;;5016822;28;20359;-82
2023/12/07 02:42:25;;;;;;;111.63;39.37;;;;;;;;;;5014677;28;20382;-81
2023/12/07 02:44:53;;;;;;;107.33;39.37;;;;;;;;;;5014773;28;20631;-81
2023/12/07 02:47:19;;;;;;;113.77;39.10;;;;;;;;;;5018867;28;20368;-80
2023/12/07 02:49:45;;;;;;;115.10;40.63;;;;;;;;;;5015414;28;20280;-78
2023/12/07 02:52:11;;;;;;;118.73;39.80;;;;;;;;;;5030277;28;20813;-81
2023/12/07 02:54:39;;;;;;;107.87;40.70;;;;;;;;;;5026037;28;20037;-82
2023/12/07 02:57:05;;;;;;;109.83;38.70;;;;;;;;;;5021305;28;20751;-81
2023/12/07 02:59:31;;;;;;;104.23;37.43;;;;;;;;;;5020285;28;20280;-80
2023/12/07 03:02:02;;;;;;;104.20;38.67;;;;;;;;;;5037422;28;20040;-81
2023/12/07 03:04:28;;;;;;;92.83;36.23;;;;;;;;;;5030982;28;20072;-80
2023/12/07 03:06:56;;;;;;;107.27;37.50;;;;;;;;;;5015872;28;20309;-80
2023/12/07 03:09:22;;;;;;;115.57;39.97;;;;;;;;;;5029294;28;20116;-81
2023/12/07 03:11:48;;;;;;;111.10;38.50;;;;;;;;;;5019312;28;20284;-80
2023/12/07 03:14:14;;;;;;;109.63;38.70;;;;;;;;;;5032184;28;20048;-80
2023/12/07 03:16:40;;;;;;;105.90;38.17;;;;;;;;;;5017092;28;20668;-82
2023/12/07 03:19:06;;;;;;;96.53;37.80;;;;;;;;;;5036470;28;20029;-80
2023/12/07 03:21:39;;;;;;;103.93;37.50;;;;;;;;;;5019358;28;20099;-80
2023/12/07 03:24:05;;;;;;;;;;;;;;;;;;5036679;28;20052;-87
2023/12/07 03:26:31;;;;;;;97.93;34.13;;;;;;;;;;5018603;28;20000;-79
2023/12/07 03:28:57;;;;;;;94.17;37.20;;;;;;;;;;5018847;28;20332;-79
2023/12/07 03:31:23;;;;;;;101.03;36.07;;;;;;;;;;5033746;28;20021;-81
2023/12/07 03:33:49;;;;;;;106.73;36.40;;;;;;;;;;5019293;28;20083;-86
2023/12/07 03:36:15;;;;;;;107.90;38.20;;;;;;;;;;5029634;28;20033;-79
2023/12/07 03:38:41;;;;;;;107.60;37.93;;;;;;;;;;5018255;28;20068;-80
2023/12/07 03:41:07;;;;;;;98.17;35.43;;;;;;;;;;5034969;28;21785;-83
2023/12/07 03:43:36;;;;;;;109.00;37.47;;;;;;;;;;5017595;28;20288;-82
2023/12/07 03:46:06;;;;;;;100.13;35.63;;;;;;;;;;5033756;28;20059;-81
2023/12/07 03:48:34;;;;;;;91.80;35.77;;;;;;;;;;5018848;28;20272;-80
2023/12/07 03:51:01;;;;;;;96.60;35.90;;;;;;;;;;5032316;28;20652;-80
2023/12/07 03:53:27;;;;;;;93.53;35.33;;;;;;;;;;5016150;28;20280;-82
2023/12/07 03:55:53;;;;;;;98.50;35.00;;;;;;;;;;5018101;28;20276;-80
2023/12/07 03:58:19;;;;;;;96.77;36.07;;;;;;;;;;5018750;28;20360;-80
2023/12/07 04:00:46;;;;;;;107.30;34.40;;;;;;;;;;5028426;28;20320;-81
2023/12/07 04:03:12;;;;;;;94.17;35.20;;;;;;;;;;5018301;28;20029;-80
2023/12/07 04:05:38;;;;;;;99.53;36.33;;;;;;;;;;5016675;28;20276;-81
2023/12/07 04:08:05;;;;;;;106.87;36.90;;;;;;;;;;5029295;28;20116;-80
2023/12/07 04:10:31;;;;;;;110.73;34.33;;;;;;;;;;5016858;28;20276;-83
2023/12/07 04:12:57;;;;;;;107.73;37.47;;;;;;;;;;5016421;28;20311;-84
2023/12/07 04:15:23;;;;;;;98.07;33.97;;;;;;;;;;5028560;28;20276;-81
2023/12/07 04:17:49;;;;;;;97.07;36.23;;;;;;;;;;5031547;28;20022;-79
2023/12/07 04:20:15;;;;;;;87.97;32.00;;;;;;;;;;5027464;28;20025;-84
2023/12/07 04:22:41;;;;;;;104.93;35.00;;;;;;;;;;5031435;28;20264;-80
2023/12/07 04:25:07;;;;;;;89.50;32.53;;;;;;;;;;5017791;28;20316;-81
2023/12/07 04:27:34;;;;;;;84.33;31.70;;;;;;;;;;5017393;28;20264;-80
2023/12/07 04:30:00;;;;;;;87.07;33.23;;;;;;;;;;5036169;28;20048;-80
2023/12/07 04:32:26;;;;;;;88.03;34.70;;;;;;;;;;5017496;28;20272;-81
2023/12/07 04:34:53;;;;;;;100.13;35.17;;;;;;;;;;5033518;28;20279;-82
2023/12/07 04:37:21;;;;;;;88.73;33.67;;;;;;;;;;5018034;28;20291;-80
2023/12/07 04:39:47;;;;;;;76.87;30.67;;;;;;;;;;5017529;28;20308;-80
2023/12/07 04:42:13;;;;;;;82.33;32.77;;;;;;;;;;5017374;28;20308;-80
2023/12/07 04:44:39;;;;;;;84.83;32.87;;;;;;;;;;5021179;28;20118;-79
2023/12/07 04:47:05;;;;;;;92.80;34.07;;;;;;;;;;5022823;28;20029;-80
2023/12/07 04:49:31;;;;;;;95.90;35.93;;;;;;;;;;5017135;28;20272;-80
2023/12/07 04:51:57;;;;;;;92.20;34.23;;;;;;;;;;5016957;28;20285;-80
2023/12/07 04:54:27;;;;;;;90.67;33.43;;;;;;;;;;5034448;28;20390;-79
2023/12/07 04:56:54;;;;;;;78.40;31.70;;;;;;;;;;5011807;28;20052;-80
2023/12/07 04:59:19;;;;;;;82.03;33.33;;;;;;;;;;5037138;28;20362;-78
2023/12/07 05:01:47;;;;;;;79.27;31.53;;;;;;;;;;5036224;28;20276;-79
2023/12/07 05:04:13;;;;;;;74.73;30.07;;;;;;;;;;5034038;28;20108;-80
2023/12/07 05:06:39;;;;;;;76.20;29.43;;;;;;;;;;5000416;28;20277;-80
2023/12/07 05:09:06;;;;;;;78.20;28.97;;;;;;;;;;5037312;28;20264;-79
2023/12/07 05:11:32;;;;;;;69.83;27.40;;;;;;;;;;5014195;28;20445;-80
2023/12/07 05:13:58;;;;;;;72.97;27.77;;;;;;;;;;5014351;28;20279;-79
2023/12/07 05:16:23;;;;;;;70.17;26.27;;;;;;;;;;5029116;28;20036;-78
2023/12/07 05:18:49;;;;;;;61.60;25.83;;;;;;;;;;5015574;28;20043;-79
2023/12/07 05:21:18;;;;;;;62.53;25.63;;;;;;;;;;5035706;28;20029;-80
2023/12/07 05:23:44;;;;;;;60.77;25.97;;;;;;;;;;5035193;28;20025;-80
2023/12/07 05:26:10;;;;;;;61.87;24.37;;;;;;;;;;5018807;28;20025;-81
2023/12/07 05:28:36;;;;;;;62.07;23.87;;;;;;;;;;5019359;28;20025;-79
2023/12/07 05:31:02;;;;;;;64.13;24.73;;;;;;;;;;5026344;28;20275;-80
2023/12/07 05:33:28;;;;;;;55.13;22.67;;;;;;;;;;5008426;28;20261;-80
2023/12/07 05:35:54;;;;;;;59.07;24.20;;;;;;;;;;5017923;28;20030;-80
2023/12/07 05:38:20;;;;;;;56.10;23.07;;;;;;;;;;5035083;28;20116;-79
2023/12/07 05:40:46;;;;;;;47.90;22.13;;;;;;;;;;5035095;28;20060;-80
2023/12/07 05:43:12;;;;;;;46.80;21.73;;;;;;;;;;5020616;28;20046;-80
2023/12/07 05:45:38;;;;;;;48.13;22.20;;;;;;;;;;5011908;28;20462;-79
2023/12/07 05:48:05;;;;;;;43.73;20.93;;;;;;;;;;5018244;28;20087;-81
2023/12/07 05:50:34;;;;;;;46.73;22.30;;;;;;;;;;5018163;28;20057;-80
2023/12/07 05:53:03;;;;;;;42.87;20.83;;;;;;;;;;5034699;28;20037;-79
2023/12/07 05:55:31;;;;;;;43.37;21.30;;;;;;;;;;5012105;28;20018;-79
2023/12/07 05:57:57;;;;;;;43.43;20.37;;;;;;;;;;5017634;28;20754;-82
2023/12/07 06:00:23;;;;;;;40.63;20.30;;;;;;;;;;5018030;28;20260;-80
2023/12/07 06:02:49;;;;;;;48.80;20.30;;;;;;;;;;5014439;28;20331;-79
2023/12/07 06:05:15;;;;;;;44.87;21.70;;;;;;;;;;5015559;28;20090;-79
2023/12/07 06:07:41;;;;;;;45.63;20.00;;;;;;;;;;5028780;28;20344;-81
2023/12/07 06:10:07;;;;;;;41.83;19.80;;;;;;;;;;5035060;28;20522;-79
2023/12/07 06:12:33;;;;;;;39.73;18.23;;;;;;;;;;5011996;28;20551;-77
2023/12/07 06:14:59;;;;;;;42.57;18.20;;;;;;;;;;5018225;28;20709;-79
2023/12/07 06:17:25;;;;;;;45.67;19.40;;;;;;;;;;5034177;28;20044;-79
2023/12/07 06:19:54;;;;;;;47.07;18.53;;;;;;;;;;5014711;28;20268;-80
2023/12/07 06:22:20;;;;;;;42.07;20.63;;;;;;;;;;5025115;28;20037;-79
2023/12/07 06:24:46;;;;;;;45.07;19.33;;;;;;;;;;5032642;28;20810;-79
2023/12/07 06:27:12;;;;;;;41.70;19.93;;;;;;;;;;5027282;28;20041;-79
2023/12/07 06:29:39;;;;;;;45.77;21.20;;;;;;;;;;5009683;28;20276;-80
2023/12/07 06:32:05;;;;;;;49.00;20.43;;;;;;;;;;5027001;28;20037;-79
2023/12/07 06:34:31;;;;;;;43.47;21.53;;;;;;;;;;5031301;28;20276;-79
2023/12/07 06:36:57;;;;;;;39.30;19.07;;;;;;;;;;5032444;28;20280;-80
2023/12/07 06:39:23;;;;;;;42.43;19.80;;;;;;;;;;5015311;28;20028;-81
2023/12/07 06:41:49;;;;;;;43.40;20.30;;;;;;;;;;5014703;28;20064;-78
2023/12/07 06:44:15;;;;;;;37.27;18.53;;;;;;;;;;5014759;28;20528;-79
2023/12/07 06:46:41;;;;;;;49.10;19.07;;;;;;;;;;5015698;28;20056;-79
2023/12/07 06:49:07;;;;;;;41.37;18.03;;;;;;;;;;5014597;28;20021;-81
2023/12/07 06:51:33;;;;;;;39.87;18.83;;;;;;;;;;5013787;28;20575;-79
2023/12/07 06:54:00;;;;;;;45.40;19.43;;;;;;;;;;5016791;28;20041;-78
2023/12/07 06:56:27;;;;;;;40.17;19.00;;;;;;;;;;5031400;28;20335;-79
2023/12/07 06:58:53;;;;;;;43.23;18.53;;;;;;;;;;5015691;28;20307;-78
2023/12/07 07:01:19;;;;;;;41.20;18.10;;;;;;;;;;5013619;28;20037;-79
2023/12/07 07:03:45;;;;;;;39.13;18.93;;;;;;;;;;5014704;28;20072;-80
2023/12/07 07:06:11;;;;;;;41.90;19.70;;;;;;;;;;5015883;28;20292;-82
2023/12/07 07:08:37;;;;;;;42.07;21.00;;;;;;;;;;5014437;28;20037;-78
2023/12/07 07:11:11;;;;;;;50.40;19.40;;;;;;;;;;5015364;28;20058;-79
2023/12/07 07:13:40;;;;;;;49.67;20.33;;;;;;;;;;5013138;28;20308;-79
2023/12/07 07:16:06;;;;;;;46.37;19.77;;;;;;;;;;5015479;28;20268;-80
2023/12/07 07:18:32;;;;;;;46.47;20.00;;;;;;;;;;5016071;28;20272;-82
2023/12/07 07:20:58;;;;;;;48.23;21.13;;;;;;;;;;5015402;28;20295;-82
2023/12/07 07:23:24;;;;;;;42.10;19.23;;;;;;;;;;5033957;28;20033;-80
2023/12/07 07:25:50;;;;;;;40.77;18.77;;;;;;;;;;5016544;28;20438;-79
2023/12/07 07:28:18;;;;;;;43.40;19.97;;;;;;;;;;5014779;28;20044;-81
2023/12/07 07:30:44;;;;;;;49.63;20.17;;;;;;;;;;5014834;28;20061;-82
2023/12/07 07:33:10;;;;;;;47.63;20.93;;;;;;;;;;5014876;28;20334;-79
2023/12/07 07:35:36;;;;;;;50.20;20.37;;;;;;;;;;5031346;28;20026;-81
2023/12/07 07:38:02;;;;;;;42.10;19.43;;;;;;;;;;5031155;28;20275;-83
2023/12/07 07:40:28;;;;;;;44.00;19.77;;;;;;;;;;5013616;28;20280;-82
2023/12/07 07:42:54;;;;;;;48.93;21.03;;;;;;;;;;5013882;28;20029;-81
2023/12/07 07:45:20;;;;;;;49.23;21.83;;;;;;;;;;5017573;28;20377;-82
2023/12/07 07:47:46;;;;;;;48.80;21.20;;;;;;;;;;5017433;28;20029;-82
2023/12/07 07:50:12;;;;;;;49.30;21.50;;;;;;;;;;5018154;28;20484;-80
2023/12/07 07:52:40;;;;;;;49.63;19.93;;;;;;;;;;5016445;28;20032;-80
2023/12/07 07:55:06;;;;;;;43.40;20.77;;;;;;;;;;5017122;28;20299;-79
2023/12/07 07:57:33;;;;;;;51.23;23.20;;;;;;;;;;5015849;28;20357;-81
2023/12/07 07:59:59;;;;;;;48.13;21.03;;;;;;;;;;5017071;28;20291;-79
2023/12/07 08:02:28;;;;;;;54.97;22.80;;;;;;;;;;5017016;28;20366;-81
2023/12/07 08:04:54;;;;;;;49.67;20.83;;;;;;;;;;5032352;28;20038;-79
2023/12/07 08:07:20;;;;;;;49.43;21.53;;;;;;;;;;5016170;28;20279;-80
2023/12/07 08:09:46;;;;;;;50.37;21.10;;;;;;;;;;5015250;28;20268;-79
2023/12/07 08:12:12;;;;;;;53.73;22.07;;;;;;;;;;5017560;28;20303;-80
2023/12/07 08:14:38;;;;;;;50.00;22.17;;;;;;;;;;5035266;28;20712;-81
2023/12/07 08:17:04;;;;;;;50.90;23.20;;;;;;;;;;5016885;28;20091;-81
2023/12/07 08:19:30;;;;;;;49.37;21.37;;;;;;;;;;5017746;28;20366;-84
2023/12/07 08:21:57;;;;;;;51.30;24.07;;;;;;;;;;5033251;28;20327;-80
2023/12/07 08:24:23;;;;;;;52.30;23.70;;;;;;;;;;5033489;28;20049;-80
2023/12/07 08:26:49;;;;;;;48.03;23.07;;;;;;;;;;5015320;28;21155;-83
2023/12/07 08:29:15;;;;;;;52.80;21.73;;;;;;;;;;5017287;28;20043;-78
2023/12/07 08:31:41;;;;;;;60.57;24.87;;;;;;;;;;5017490;28;20087;-79
2023/12/07 08:34:09;;;;;;;57.73;23.90;;;;;;;;;;5033814;28;20049;-79
2023/12/07 08:36:35;;;;;;;56.83;24.77;;;;;;;;;;5016755;28;21181;-79
2023/12/07 08:39:01;;;;;;;60.47;23.93;;;;;;;;;;5016298;28;20775;-81
2023/12/07 08:41:27;;;;;;;59.07;23.87;;;;;;;;;;5034420;28;20293;-79
2023/12/07 08:43:56;;;;;;;55.40;25.33;;;;;;;;;;5017288;28;20473;-81
2023/12/07 08:46:22;;;;;;;56.93;24.47;;;;;;;;;;5017064;28;20044;-80
2023/12/07 08:48:48;;;;;;;55.20;24.40;;;;;;;;;;5013969;28;20280;-79
2023/12/07 08:51:16;;;;;;;52.67;24.47;;;;;;;;;;5018501;28;20112;-82
2023/12/07 08:53:45;;;;;;;54.50;23.50;;;;;;;;;;5016986;28;20434;-81
2023/12/07 08:56:12;;;;;;;62.33;24.53;;;;;;;;;;5031267;28;20291;-80
2023/12/07 08:58:38;;;;;;;57.90;23.43;;;;;;;;;;5032193;28;20368;-80
2023/12/07 09:01:07;;;;;;;65.17;24.00;;;;;;;;;;5015653;28;20357;-78
2023/12/07 09:03:34;;;;;;;56.50;23.93;;;;;;;;;;5013518;28;20076;-79
2023/12/07 09:06:02;;;;;;;59.00;25.63;;;;;;;;;;5033826;28;20279;-79
2023/12/07 09:08:28;;;;;;;57.97;23.60;;;;;;;;;;5014631;28;20279;-81
2023/12/07 09:10:54;;;;;;;56.70;24.37;;;;;;;;;;5016220;28;20279;-80
2023/12/07 09:13:23;;;;;;;55.67;24.77;;;;;;;;;;5016703;28;20113;-79
2023/12/07 09:15:49;;;;;;;57.03;24.30;;;;;;;;;;5009240;28;20033;-80
2023/12/07 09:18:15;;;;;;;52.97;24.80;;;;;;;;;;5017865;28;20276;-80
2023/12/07 09:20:45;;;;;;;59.07;24.43;;;;;;;;;;5016197;28;20282;-80
2023/12/07 09:23:12;;;;;;;55.97;26.80;;;;;;;;;;5029716;28;20025;-80
2023/12/07 09:25:39;;;;;;;57.83;26.60;;;;;;;;;;5016054;28;20469;-79
2023/12/07 09:28:05;;;;;;;65.30;26.57;;;;;;;;;;5017335;28;20732;-81
2023/12/07 09:30:33;;;;;;;58.47;25.50;;;;;;;;;;5015798;28;20272;-80
2023/12/07 09:32:59;;;;;;;53.77;26.30;;;;;;;;;;5016887;28;20272;-79
2023/12/07 09:35:25;;;;;;;52.73;24.67;;;;;;;;;;5029144;28;20276;-79
2023/12/07 09:37:51;;;;;;;56.97;25.17;;;;;;;;;;5016198;28;20302;-78
2023/12/07 09:40:21;;;;;;;56.87;25.63;;;;;;;;;;5027137;28;20331;-78
2023/12/07 09:42:47;;;;;;;53.97;22.43;;;;;;;;;;5031139;28;20539;-82
2023/12/07 09:45:16;;;;;;;51.13;23.40;;;;;;;;;;5013411;28;20310;-79
2023/12/07 09:47:47;;;;;;;52.37;23.93;;;;;;;;;;5026954;28;20300;-80
2023/12/07 09:50:15;;;;;;;59.20;25.07;;;;;;;;;;5010877;28;20322;-79
2023/12/07 09:52:43;;;;;;;55.50;26.30;;;;;;;;;;5013374;28;20283;-81
2023/12/07 09:55:09;;;;;;;60.77;27.80;;;;;;;;;;5013432;28;20290;-79
2023/12/07 09:57:37;;;;;;;52.50;24.57;;;;;;;;;;5011488;28;20283;-80
2023/12/07 10:00:04;;;;;;;52.47;24.47;;;;;;;;;;5015318;28;20771;-82
2023/12/07 10:02:30;;;;;;;54.93;25.20;;;;;;;;;;5017228;28;20276;-78
2023/12/07 10:05:21;;;;;;;48.47;23.43;;;;;;;;;;5009255;28;20037;-82
2023/12/07 10:07:49;;;;;;;55.10;24.97;;;;;;;;;;5015869;28;20744;-79
2023/12/07 10:10:15;;;;;;;52.23;23.73;;;;;;;;;;5030600;28;20359;-80
2023/12/07 10:12:46;;;;;;;51.00;26.47;;;;;;;;;;5027727;28;20036;-81
2023/12/07 10:15:16;;;;;;;47.33;23.57;;;;;;;;;;5021915;28;20096;-79
2023/12/07 10:17:51;;;;;;;44.33;22.57;;;;;;;;;;5028688;28;20458;-80
2023/12/07 10:20:18;;;;;;;46.50;23.60;;;;;;;;;;5026645;28;20063;-81
2023/12/07 10:22:44;;;;;;;43.20;22.83;;;;;;;;;;5013696;28;20049;-79
2023/12/07 10:25:11;;;;;;;47.50;23.63;;;;;;;;;;5028810;28;20061;-79
2023/12/07 10:27:38;;;;;;;47.60;22.90;;;;;;;;;;5031640;28;20260;-79
2023/12/07 10:30:06;;;;;;;48.40;23.77;;;;;;;;;;5014614;28;20105;-79
2023/12/07 10:32:32;;;;;;;47.37;22.40;;;;;;;;;;5014777;28;20025;-79
2023/12/07 10:35:01;;;;;;;42.77;21.40;;;;;;;;;;5014745;28;20029;-79
2023/12/07 10:37:27;;;;;;;42.10;21.20;;;;;;;;;;5024283;28;20021;-79
2023/12/07 10:39:53;;;;;;;46.10;22.53;;;;;;;;;;5023744;28;20163;-79
2023/12/07 10:42:19;;;;;;;49.17;22.30;;;;;;;;;;5016114;28;20084;-78
2023/12/07 10:44:47;;;;;;;41.33;22.63;;;;;;;;;;5012265;28;20026;-79
2023/12/07 10:47:15;;;;;;;43.33;22.23;;;;;;;;;;5010123;28;20037;-80
2023/12/07 10:49:44;;;;;;;55.27;22.83;;;;;;;;;;5017123;28;20026;-81
2023/12/07 10:52:13;;;;;;;38.23;21.73;;;;;;;;;;5017587;28;20025;-79
2023/12/07 10:54:51;;;;;;;42.10;21.77;;;;;;;;;;5013909;28;20030;-78
2023/12/07 10:57:18;;;;;;;41.50;20.50;;;;;;;;;;5017615;28;20026;-79
2023/12/07 10:59:44;;;;;;;36.20;20.77;;;;;;;;;;5031275;28;20043;-79
2023/12/07 11:02:10;;;;;;;46.50;19.93;;;;;;;;;;5009828;28;20026;-79
2023/12/07 11:04:37;;;;;;;35.97;20.07;;;;;;;;;;5019089;28;20076;-79
2023/12/07 11:07:06;;;;;;;38.03;19.30;;;;;;;;;;4999423;28;20026;-79
2023/12/07 11:09:35;;;;;;;41.20;19.43;;;;;;;;;;5002453;28;20034;-79
2023/12/07 11:12:05;;;;;;;38.13;19.60;;;;;;;;;;5011227;28;20461;-78
2023/12/07 11:14:31;;;;;;;38.13;19.07;;;;;;;;;;5002475;28;20061;-82
2023/12/07 11:16:58;;;;;;;36.43;20.40;;;;;;;;;;5008512;28;20030;-79
2023/12/07 11:19:35;;;;;;;39.80;19.77;;;;;;;;;;5021309;28;20026;-79
2023/12/07 11:22:02;;;;;;;32.67;18.13;;;;;;;;;;5007488;28;20041;-78
2023/12/07 11:24:29;;;;;;;35.83;17.20;;;;;;;;;;5010238;28;20029;-78
2023/12/07 11:26:58;;;;;;;33.33;18.07;;;;;;;;;;5020946;28;20084;-79
2023/12/07 11:29:24;;;;;;;31.27;18.63;;;;;;;;;;5015240;28;20080;-77
2023/12/07 11:31:50;;;;;;;28.87;17.13;;;;;;;;;;5015437;28;20025;-76
2023/12/07 11:34:55;;;;;;;34.43;17.87;;;;;;;;;;5037016;28;20036;-77
2023/12/07 11:37:21;;;;;;;30.20;16.63;;;;;;;;;;4972645;28;20450;-77
2023/12/07 11:39:47;;;;;;;28.63;15.83;;;;;;;;;;4977506;28;20587;-78
2023/12/07 11:42:22;;;;;;;29.27;16.50;;;;;;;;;;4977103;28;20423;-77
2023/12/07 11:44:49;;;;;;;30.33;14.93;;;;;;;;;;4960034;28;20105;-78
2023/12/07 11:47:21;;;;;;;26.13;16.03;;;;;;;;;;4979957;28;20166;-77
2023/12/07 11:49:47;;;;;;;29.77;16.92;;;;;;;;;;4960452;28;20627;-77
2023/12/07 11:52:19;;;;;;;24.10;14.77;;;;;;;;;;4976980;28;20526;-78
2023/12/07 11:54:49;;;;;;;28.30;16.13;;;;;;;;;;4960546;28;20540;-76
2023/12/07 11:57:15;;;;;;;28.60;16.73;;;;;;;;;;4960727;28;20030;-77
2023/12/07 11:59:43;;;;;;;31.80;17.20;;;;;;;;;;4976642;28;20030;-77
2023/12/07 12:02:10;;;;;;;28.23;15.57;;;;;;;;;;4960454;28;20042;-77
2023/12/07 12:04:37;;;;;;;28.47;16.13;;;;;;;;;;4976531;28;20042;-76
2023/12/07 12:07:04;;;;;;;26.40;15.50;;;;;;;;;;4965594;28;20432;-78
2023/12/07 12:09:30;;;;;;;24.50;14.57;;;;;;;;;;5035525;28;20083;-77
2023/12/07 12:12:00;;;;;;;34.80;15.77;;;;;;;;;;5010694;28;20029;-76
2023/12/07 12:14:26;;;;;;;25.13;14.50;;;;;;;;;;5008589;28;20040;-77
2023/12/07 12:16:52;;;;;;;30.43;16.00;;;;;;;;;;5014641;28;20025;-76
2023/12/07 12:19:18;;;;;;;28.63;15.23;;;;;;;;;;5015973;28;20044;-76
2023/12/07 12:21:44;;;;;;;28.50;15.67;;;;;;;;;;5033362;28;20140;-77
2023/12/07 12:24:13;;;;;;;24.77;14.00;;;;;;;;;;5015634;28;20033;-77
2023/12/07 12:26:40;;;;;;;27.20;14.97;;;;;;;;;;5033589;28;20029;-78
2023/12/07 12:29:08;;;;;;;32.43;17.27;;;;;;;;;;5029705;28;20029;-78
2023/12/07 12:31:34;;;;;;;26.03;15.80;;;;;;;;;;5033088;28;20025;-77
2023/12/07 12:34:03;;;;;;;26.43;15.30;;;;;;;;;;5016132;28;20068;-77
2023/12/07 12:36:30;;;;;;;26.33;15.43;;;;;;;;;;5032439;28;20097;-76
2023/12/07 12:38:56;;;;;;;28.23;15.30;;;;;;;;;;5031744;28;20060;-77
2023/12/07 12:41:22;;;;;;;28.53;16.03;;;;;;;;;;5033976;28;20033;-77
2023/12/07 12:43:49;;;;;;;23.13;14.43;;;;;;;;;;5016128;28;20025;-77
2023/12/07 12:46:18;;;;;;;24.63;13.87;;;;;;;;;;5017542;28;20088;-82
2023/12/07 12:48:55;;;;;;;23.43;12.27;;;;;;;;;;5014038;28;20138;-77
2023/12/07 12:51:21;;;;;;;18.00;11.40;;;;;;;;;;5014866;28;21225;-77
2023/12/07 12:53:47;;;;;;;34.43;13.63;;;;;;;;;;5016237;28;20033;-78
2023/12/07 12:56:17;;;;;;;26.47;12.63;;;;;;;;;;5017293;28;20041;-77
2023/12/07 12:58:43;;;;;;;19.97;11.50;;;;;;;;;;5014070;28;20469;-77
2023/12/07 13:01:09;;;;;;;19.67;12.50;;;;;;;;;;5033621;28;20059;-77
2023/12/07 13:03:35;;;;;;;18.90;11.47;;;;;;;;;;5017370;28;20029;-76
2023/12/07 13:06:04;;;;;;;18.73;11.23;;;;;;;;;;5015353;28;20112;-78
2023/12/07 13:08:33;;;;;;;21.47;12.50;;;;;;;;;;5016440;28;20080;-76
2023/12/07 13:10:59;;;;;;;22.77;11.83;;;;;;;;;;5016378;28;20059;-77
2023/12/07 13:13:25;;;;;;;22.77;12.17;;;;;;;;;;5014453;28;20501;-77
2023/12/07 13:15:58;;;;;;;18.03;11.37;;;;;;;;;;5017762;28;20029;-78
2023/12/07 13:18:24;;;;;;;21.13;11.97;;;;;;;;;;5018864;28;20374;-77
2023/12/07 13:20:52;;;;;;;21.13;12.37;;;;;;;;;;5037150;28;20431;-77
2023/12/07 13:23:21;;;;;;;17.17;10.63;;;;;;;;;;5038590;28;20033;-77
2023/12/07 13:25:47;;;;;;;14.80;10.17;;;;;;;;;;5016544;28;20084;-77
2023/12/07 13:28:13;;;;;;;22.77;10.93;;;;;;;;;;5014705;28;20064;-77
2023/12/07 13:30:39;;;;;;;17.47;11.23;;;;;;;;;;5013885;28;20025;-76
2023/12/07 13:33:05;;;;;;;16.40;9.37;;;;;;;;;;5013523;28;20048;-76
2023/12/07 13:35:32;;;;;;;13.83;8.97;;;;;;;;;;5014713;28;20033;-77
2023/12/07 13:37:58;;;;;;;22.63;10.17;;;;;;;;;;5013295;28;20370;-76
2023/12/07 13:40:26;;;;;;;18.53;11.07;;;;;;;;;;5016722;28;20040;-77
2023/12/07 13:42:52;;;;;;;17.03;10.53;;;;;;;;;;5015807;28;20052;-77
2023/12/07 13:45:19;;;;;;;19.70;9.63;;;;;;;;;;5015092;28;20450;-78
2023/12/07 13:47:45;;;;;;;21.83;11.43;;;;;;;;;;5012928;28;20063;-77
2023/12/07 13:50:12;;;;;;;17.67;10.33;;;;;;;;;;5031742;28;20029;-77
2023/12/07 13:52:38;;;;;;;17.27;11.13;;;;;;;;;;5015544;28;20057;-77
2023/12/07 13:55:05;;;;;;;18.43;12.07;;;;;;;;;;5013967;28;20033;-77
2023/12/07 13:57:31;;;;;;;19.23;11.60;;;;;;;;;;5014500;28;20355;-76
2023/12/07 13:59:57;;;;;;;17.73;11.53;;;;;;;;;;5033237;28;20029;-78
2023/12/07 14:02:23;;;;;;;18.20;11.27;;;;;;;;;;5014864;28;20025;-77
2023/12/07 14:04:50;;;;;;;18.90;9.70;;;;;;;;;;5030668;28;20454;-77
2023/12/07 14:07:16;;;;;;;20.47;11.30;;;;;;;;;;5014631;28;20021;-77
2023/12/07 14:09:44;;;;;;;19.10;10.27;;;;;;;;;;5013615;28;20033;-76
2023/12/07 14:12:14;;;;;;;18.90;10.17;;;;;;;;;;5013104;28;20112;-77